sensor_id;sensor_type;location;lat;lon;timestamp;pressure;altitude;pressure_sealevel;temperature;humidity
56950;BME280;74437;50.080;19.924;2023-12-20T16:38:09;98304.97;;;1.99;90.31
56950;BME280;74437;50.080;19.924;2023-12-20T16:40:34;98268.84;;;1.69;89.67
56950;BME280;74437;50.080;19.924;2023-12-20T16:42:59;98304.09;;;2.05;91.11
56950;BME280;74437;50.080;19.924;2023-12-20T16:45:25;98297.81;;;2.31;90.69
56950;BME280;74437;50.080;19.924;2023-12-20T16:47:50;98273.59;;;2.19;88.87
56950;BME280;74437;50.080;19.924;2023-12-20T16:50:16;98303.59;;;2.35;88.55
56950;BME280;74437;50.080;19.924;2023-12-20T16:52:41;98295.56;;;2.28;88.32
56950;BME280;74437;50.080;19.924;2023-12-20T16:55:10;98294.13;;;2.32;88.75
56950;BME280;74437;50.080;19.924;2023-12-20T16:57:37;98298.44;;;2.33;89.61
56950;BME280;74437;50.080;19.924;2023-12-20T17:00:03;98235.34;;;2.12;87.57
56950;BME280;74437;50.080;19.924;2023-12-20T17:02:28;98281.72;;;2.45;86.98
56950;BME280;74437;50.080;19.924;2023-12-20T17:04:53;98268.38;;;2.38;87.20
56950;BME280;74437;50.080;19.924;2023-12-20T17:07:19;98306.84;;;2.76;87.20
56950;BME280;74437;50.080;19.924;2023-12-20T17:09:44;98287.31;;;2.68;86.17
56950;BME280;74437;50.080;19.924;2023-12-20T17:12:14;98302.97;;;2.72;85.78
56950;BME280;74437;50.080;19.924;2023-12-20T17:14:39;98259.50;;;2.37;85.27
56950;BME280;74437;50.080;19.924;2023-12-20T17:17:04;98294.66;;;2.48;85.04
56950;BME280;74437;50.080;19.924;2023-12-20T17:19:30;98284.84;;;2.35;85.50
56950;BME280;74437;50.080;19.924;2023-12-20T17:21:57;98250.38;;;2.13;85.67
56950;BME280;74437;50.080;19.924;2023-12-20T17:24:22;98286.50;;;2.29;86.00
56950;BME280;74437;50.080;19.924;2023-12-20T17:26:47;98285.91;;;2.27;85.46
56950;BME280;74437;50.080;19.924;2023-12-20T17:29:13;98290.63;;;2.25;85.91
56950;BME280;74437;50.080;19.924;2023-12-20T17:31:38;98294.38;;;2.24;85.37
56950;BME280;74437;50.080;19.924;2023-12-20T17:34:06;98290.06;;;2.16;86.40
56950;BME280;74437;50.080;19.924;2023-12-20T17:36:34;98275.91;;;2.09;86.21
56950;BME280;74437;50.080;19.924;2023-12-20T17:38:59;98282.03;;;2.23;86.18
56950;BME280;74437;50.080;19.924;2023-12-20T17:41:24;98268.66;;;2.16;85.58
56950;BME280;74437;50.080;19.924;2023-12-20T17:43:50;98235.41;;;2.05;85.40
56950;BME280;74437;50.080;19.924;2023-12-20T17:46:15;98267.16;;;2.27;84.52
56950;BME280;74437;50.080;19.924;2023-12-20T17:48:41;98287.84;;;2.52;84.13
56950;BME280;74437;50.080;19.924;2023-12-20T17:51:06;98289.44;;;2.60;83.85
56950;BME280;74437;50.080;19.924;2023-12-20T17:53:31;98281.22;;;2.61;82.87
56950;BME280;74437;50.080;19.924;2023-12-20T17:55:56;98252.69;;;2.42;83.08
56950;BME280;74437;50.080;19.924;2023-12-20T17:58:22;98282.25;;;2.60;82.29
56950;BME280;74437;50.080;19.924;2023-12-20T18:00:47;98253.69;;;2.47;82.65
56950;BME280;74437;50.080;19.924;2023-12-20T18:03:13;98267.97;;;2.66;81.00
56950;BME280;74437;50.080;19.924;2023-12-20T18:05:38;98258.53;;;2.64;81.23
56950;BME280;74437;50.080;19.924;2023-12-20T18:08:04;98268.16;;;2.72;80.71
56950;BME280;74437;50.080;19.924;2023-12-20T18:10:29;98280.53;;;2.98;80.48
56950;BME280;74437;50.080;19.924;2023-12-20T18:12:54;98280.94;;;3.02;80.29
56950;BME280;74437;50.080;19.924;2023-12-20T18:15:21;98274.53;;;3.03;80.22
56950;BME280;74437;50.080;19.924;2023-12-20T18:17:46;98277.81;;;3.05;79.21
56950;BME280;74437;50.080;19.924;2023-12-20T18:20:13;98283.75;;;3.07;79.66
56950;BME280;74437;50.080;19.924;2023-12-20T18:22:38;98284.97;;;3.11;78.74
56950;BME280;74437;50.080;19.924;2023-12-20T18:25:05;98283.31;;;3.10;78.94
56950;BME280;74437;50.080;19.924;2023-12-20T18:27:31;98287.28;;;3.07;80.05
56950;BME280;74437;50.080;19.924;2023-12-20T18:29:56;98289.09;;;3.13;78.90
56950;BME280;74437;50.080;19.924;2023-12-20T18:32:23;98276.19;;;3.04;79.19
56950;BME280;74437;50.080;19.924;2023-12-20T18:34:50;98286.78;;;3.17;78.69
56950;BME280;74437;50.080;19.924;2023-12-20T18:37:16;98278.31;;;3.20;78.11
56950;BME280;74437;50.080;19.924;2023-12-20T18:39:41;98276.66;;;3.19;78.92
56950;BME280;74437;50.080;19.924;2023-12-20T18:42:07;98273.38;;;3.17;78.10
56950;BME280;74437;50.080;19.924;2023-12-20T18:44:36;98244.03;;;3.04;79.01
56950;BME280;74437;50.080;19.924;2023-12-20T18:47:02;98230.69;;;2.97;77.60
56950;BME280;74437;50.080;19.924;2023-12-20T18:49:27;98280.28;;;3.32;78.11
56950;BME280;74437;50.080;19.924;2023-12-20T18:51:53;98268.72;;;3.31;77.94
56950;BME280;74437;50.080;19.924;2023-12-20T18:54:18;98268.28;;;3.34;76.82
56950;BME280;74437;50.080;19.924;2023-12-20T18:56:45;98254.69;;;3.36;77.45
56950;BME280;74437;50.080;19.924;2023-12-20T18:59:11;98266.28;;;3.30;76.66
56950;BME280;74437;50.080;19.924;2023-12-20T19:01:38;98269.13;;;3.35;77.08
56950;BME280;74437;50.080;19.924;2023-12-20T19:04:03;98261.13;;;3.28;76.06
56950;BME280;74437;50.080;19.924;2023-12-20T19:06:28;98289.53;;;3.36;76.44
56950;BME280;74437;50.080;19.924;2023-12-20T19:08:54;98276.41;;;3.27;76.72
56950;BME280;74437;50.080;19.924;2023-12-20T19:11:19;98280.66;;;3.35;75.78
56950;BME280;74437;50.080;19.924;2023-12-20T19:13:45;98280.03;;;3.33;77.07
56950;BME280;74437;50.080;19.924;2023-12-20T19:16:11;98249.28;;;3.17;76.44
56950;BME280;74437;50.080;19.924;2023-12-20T19:18:36;98281.66;;;3.41;75.71
56950;BME280;74437;50.080;19.924;2023-12-20T19:21:01;98288.66;;;3.42;76.03
56950;BME280;74437;50.080;19.924;2023-12-20T19:23:32;98288.78;;;3.47;74.81
56950;BME280;74437;50.080;19.924;2023-12-20T19:25:57;98263.75;;;3.35;74.26
56950;BME280;74437;50.080;19.924;2023-12-20T19:28:24;98289.78;;;3.53;73.80
56950;BME280;74437;50.080;19.924;2023-12-20T19:30:49;98285.66;;;3.50;73.96
56950;BME280;74437;50.080;19.924;2023-12-20T19:33:14;98271.38;;;3.56;74.32
56950;BME280;74437;50.080;19.924;2023-12-20T19:35:40;98272.13;;;3.64;73.67
56950;BME280;74437;50.080;19.924;2023-12-20T19:38:05;98256.16;;;3.50;73.59
56950;BME280;74437;50.080;19.924;2023-12-20T19:40:30;98261.63;;;3.62;73.05
56950;BME280;74437;50.080;19.924;2023-12-20T19:42:55;98256.13;;;3.57;73.04
56950;BME280;74437;50.080;19.924;2023-12-20T19:45:22;98222.38;;;3.49;72.74
56950;BME280;74437;50.080;19.924;2023-12-20T19:47:48;98247.03;;;3.58;72.81
56950;BME280;74437;50.080;19.924;2023-12-20T19:50:13;98233.56;;;3.46;74.54
56950;BME280;74437;50.080;19.924;2023-12-20T19:52:39;98221.31;;;3.32;73.33
56950;BME280;74437;50.080;19.924;2023-12-20T19:55:04;98243.63;;;3.25;73.36
56950;BME280;74437;50.080;19.924;2023-12-20T19:57:29;98244.00;;;3.29;74.33
56950;BME280;74437;50.080;19.924;2023-12-20T19:59:55;98241.78;;;3.26;75.03
56950;BME280;74437;50.080;19.924;2023-12-20T20:02:21;98259.28;;;3.28;74.86
56950;BME280;74437;50.080;19.924;2023-12-20T20:04:46;98242.31;;;3.35;74.38
56950;BME280;74437;50.080;19.924;2023-12-20T20:07:11;98249.53;;;3.34;74.93
56950;BME280;74437;50.080;19.924;2023-12-20T20:09:40;98237.41;;;3.32;73.59
56950;BME280;74437;50.080;19.924;2023-12-20T20:12:06;98235.25;;;3.40;74.10
56950;BME280;74437;50.080;19.924;2023-12-20T20:14:31;98232.81;;;3.39;73.86
56950;BME280;74437;50.080;19.924;2023-12-20T20:16:57;98168.44;;;3.02;74.30
56950;BME280;74437;50.080;19.924;2023-12-20T20:19:25;98225.38;;;3.41;74.20
56950;BME280;74437;50.080;19.924;2023-12-20T20:21:50;98229.34;;;3.32;76.20
56950;BME280;74437;50.080;19.924;2023-12-20T20:24:15;98212.00;;;3.16;74.68
56950;BME280;74437;50.080;19.924;2023-12-20T20:26:40;98152.88;;;2.66;74.24
56950;BME280;74437;50.080;19.924;2023-12-20T20:29:06;98238.81;;;3.09;75.99
56950;BME280;74437;50.080;19.924;2023-12-20T20:31:31;98212.63;;;3.11;74.42
56950;BME280;74437;50.080;19.924;2023-12-20T20:33:59;98231.38;;;3.11;74.72
56950;BME280;74437;50.080;19.924;2023-12-20T20:36:25;98226.44;;;3.15;74.94
56950;BME280;74437;50.080;19.924;2023-12-20T20:38:50;98239.59;;;3.16;74.96
56950;BME280;74437;50.080;19.924;2023-12-20T20:41:15;98246.00;;;3.15;75.85
56950;BME280;74437;50.080;19.924;2023-12-20T20:43:41;98223.19;;;3.06;75.03
56950;BME280;74437;50.080;19.924;2023-12-20T20:46:06;98217.13;;;3.17;73.97
56950;BME280;74437;50.080;19.924;2023-12-20T20:48:32;98220.69;;;3.11;74.15
56950;BME280;74437;50.080;19.924;2023-12-20T20:50:57;98229.97;;;3.34;74.89
56950;BME280;74437;50.080;19.924;2023-12-20T20:53:23;98241.44;;;3.41;73.99
56950;BME280;74437;50.080;19.924;2023-12-20T20:55:49;98227.53;;;3.51;73.73
56950;BME280;74437;50.080;19.924;2023-12-20T20:58:14;98216.47;;;3.40;74.30
56950;BME280;74437;50.080;19.924;2023-12-20T21:00:39;98225.28;;;3.48;74.15
56950;BME280;74437;50.080;19.924;2023-12-20T21:03:05;98169.94;;;3.16;73.77
56950;BME280;74437;50.080;19.924;2023-12-20T21:05:30;98197.22;;;3.32;73.61
56950;BME280;74437;50.080;19.924;2023-12-20T21:07:55;98240.28;;;3.30;73.72
56950;BME280;74437;50.080;19.924;2023-12-20T21:10:22;98195.06;;;2.96;74.19
56950;BME280;74437;50.080;19.924;2023-12-20T21:12:47;98243.47;;;3.20;74.70
56950;BME280;74437;50.080;19.924;2023-12-20T21:15:14;98242.66;;;3.20;75.20
56950;BME280;74437;50.080;19.924;2023-12-20T21:17:40;98238.56;;;3.17;74.34
56950;BME280;74437;50.080;19.924;2023-12-20T21:20:11;98245.22;;;3.08;74.50
56950;BME280;74437;50.080;19.924;2023-12-20T21:22:37;98262.81;;;2.97;75.12
56950;BME280;74437;50.080;19.924;2023-12-20T21:25:03;98230.06;;;2.70;74.86
56950;BME280;74437;50.080;19.924;2023-12-20T21:27:28;98236.59;;;2.80;75.06
56950;BME280;74437;50.080;19.924;2023-12-20T21:29:55;98242.34;;;2.84;74.72
56950;BME280;74437;50.080;19.924;2023-12-20T21:32:20;98194.78;;;2.54;75.56
56950;BME280;74437;50.080;19.924;2023-12-20T21:34:47;98197.91;;;2.51;75.44
56950;BME280;74437;50.080;19.924;2023-12-20T21:37:12;98246.19;;;2.63;76.38
56950;BME280;74437;50.080;19.924;2023-12-20T21:39:37;98233.47;;;2.58;76.18
56950;BME280;74437;50.080;19.924;2023-12-20T21:42:03;98228.31;;;2.57;75.80
56950;BME280;74437;50.080;19.924;2023-12-20T21:44:29;98216.63;;;2.51;75.81
56950;BME280;74437;50.080;19.924;2023-12-20T21:46:55;98220.34;;;2.50;76.12
56950;BME280;74437;50.080;19.924;2023-12-20T21:49:20;98222.22;;;2.43;77.35
56950;BME280;74437;50.080;19.924;2023-12-20T21:51:45;98220.34;;;2.50;76.86
56950;BME280;74437;50.080;19.924;2023-12-20T21:54:11;98194.91;;;2.34;76.46
56950;BME280;74437;50.080;19.924;2023-12-20T21:56:37;98148.97;;;2.12;76.39
56950;BME280;74437;50.080;19.924;2023-12-20T21:59:02;98226.91;;;2.54;76.34
56950;BME280;74437;50.080;19.924;2023-12-20T22:01:27;98215.19;;;2.48;76.19
56950;BME280;74437;50.080;19.924;2023-12-20T22:03:53;98215.19;;;2.48;76.24
56950;BME280;74437;50.080;19.924;2023-12-20T22:06:19;98227.81;;;2.41;76.94
56950;BME280;74437;50.080;19.924;2023-12-20T22:08:44;98219.19;;;2.32;77.18
56950;BME280;74437;50.080;19.924;2023-12-20T22:11:09;98205.66;;;2.27;77.19
56950;BME280;74437;50.080;19.924;2023-12-20T22:13:35;98227.44;;;2.31;77.70
56950;BME280;74437;50.080;19.924;2023-12-20T22:16:00;98228.91;;;2.27;78.87
56950;BME280;74437;50.080;19.924;2023-12-20T22:18:25;98226.41;;;2.32;77.89
56950;BME280;74437;50.080;19.924;2023-12-20T22:20:52;98219.19;;;2.32;77.75
56950;BME280;74437;50.080;19.924;2023-12-20T22:23:18;98198.06;;;2.24;77.27
56950;BME280;74437;50.080;19.924;2023-12-20T22:25:43;98211.97;;;2.40;76.78
56950;BME280;74437;50.080;19.924;2023-12-20T22:28:09;98204.78;;;2.33;77.87
56950;BME280;74437;50.080;19.924;2023-12-20T22:30:34;98221.97;;;2.51;77.21
56950;BME280;74437;50.080;19.924;2023-12-20T22:32:59;98216.56;;;2.58;76.74
56950;BME280;74437;50.080;19.924;2023-12-20T22:35:25;98222.16;;;2.56;76.64
56950;BME280;74437;50.080;19.924;2023-12-20T22:37:51;98123.75;;;1.94;77.21
56950;BME280;74437;50.080;19.924;2023-12-20T22:40:17;98208.00;;;2.49;77.64
56950;BME280;74437;50.080;19.924;2023-12-20T22:42:43;98204.72;;;2.47;78.22
56950;BME280;74437;50.080;19.924;2023-12-20T22:45:08;98205.75;;;2.46;78.07
56950;BME280;74437;50.080;19.924;2023-12-20T22:47:36;98217.25;;;2.46;77.78
56950;BME280;74437;50.080;19.924;2023-12-20T22:50:02;98216.56;;;2.58;77.15
56950;BME280;74437;50.080;19.924;2023-12-20T22:52:27;98217.59;;;2.63;76.76
56950;BME280;74437;50.080;19.924;2023-12-20T22:54:53;98131.22;;;2.17;77.07
56950;BME280;74437;50.080;19.924;2023-12-20T22:57:18;98210.13;;;2.65;77.50
56950;BME280;74437;50.080;19.924;2023-12-20T22:59:43;98116.81;;;2.18;76.99
56950;BME280;74437;50.080;19.924;2023-12-20T23:02:09;98199.94;;;2.81;79.22
56950;BME280;74437;50.080;19.924;2023-12-20T23:04:35;98177.75;;;2.74;76.97
56950;BME280;74437;50.080;19.924;2023-12-20T23:07:03;98177.47;;;2.82;76.40
56950;BME280;74437;50.080;19.924;2023-12-20T23:09:28;98178.06;;;2.84;76.95
56950;BME280;74437;50.080;19.924;2023-12-20T23:11:53;98166.00;;;2.75;76.52
56950;BME280;74437;50.080;19.924;2023-12-20T23:14:19;98166.16;;;2.80;76.41
56950;BME280;74437;50.080;19.924;2023-12-20T23:16:44;98129.72;;;2.53;77.15
56950;BME280;74437;50.080;19.924;2023-12-20T23:19:09;98177.31;;;2.77;76.65
56950;BME280;74437;50.080;19.924;2023-12-20T23:21:37;98166.59;;;2.77;77.09
56950;BME280;74437;50.080;19.924;2023-12-20T23:24:02;98163.53;;;2.73;76.44
56950;BME280;74437;50.080;19.924;2023-12-20T23:26:28;98135.06;;;2.53;77.81
56950;BME280;74437;50.080;19.924;2023-12-20T23:28:53;98154.69;;;2.73;76.85
56950;BME280;74437;50.080;19.924;2023-12-20T23:31:22;98177.41;;;2.89;76.92
56950;BME280;74437;50.080;19.924;2023-12-20T23:33:48;98083.78;;;2.31;77.03
56950;BME280;74437;50.080;19.924;2023-12-20T23:36:14;98176.38;;;2.90;76.62
56950;BME280;74437;50.080;19.924;2023-12-20T23:38:39;98166.69;;;2.89;76.51
56950;BME280;74437;50.080;19.924;2023-12-20T23:41:04;98172.72;;;2.84;77.84
56950;BME280;74437;50.080;19.924;2023-12-20T23:43:30;98175.16;;;2.86;77.28
56950;BME280;74437;50.080;19.924;2023-12-20T23:45:55;98131.75;;;2.58;76.22
56950;BME280;74437;50.080;19.924;2023-12-20T23:48:20;98148.13;;;2.68;77.69
56950;BME280;74437;50.080;19.924;2023-12-20T23:50:46;98167.78;;;2.81;76.97
56950;BME280;74437;50.080;19.924;2023-12-20T23:53:11;98158.34;;;2.78;77.07
56950;BME280;74437;50.080;19.924;2023-12-20T23:55:39;98126.41;;;2.58;78.04
56950;BME280;74437;50.080;19.924;2023-12-20T23:58:05;98162.50;;;2.74;78.79
